createdAt,value
2023-05-11T00:04:33.058Z,11.3
2023-05-11T00:09:29.566Z,11.1
2023-05-11T00:15:40.314Z,11.1
2023-05-11T00:20:36.790Z,11
2023-05-11T00:25:33.362Z,11
2023-05-11T00:30:29.874Z,11.3
2023-05-11T00:35:34.514Z,11.1
2023-05-11T00:40:31.038Z,11.3
2023-05-11T00:46:41.658Z,11.3
2023-05-11T00:51:38.320Z,11.3
2023-05-11T00:56:34.771Z,11.2
2023-05-11T01:01:31.251Z,11.4
2023-05-11T01:06:27.976Z,11.8
2023-05-11T01:12:38.512Z,11.9
2023-05-11T01:17:35.118Z,11.8
2023-05-11T01:22:31.571Z,12.1
2023-05-11T01:27:28.140Z,12.1
2023-05-11T01:33:38.802Z,12.1
2023-05-11T01:38:35.373Z,11.9
2023-05-11T01:43:31.852Z,11.9
2023-05-11T01:54:39.190Z,11.6
2023-05-11T01:59:35.627Z,11.5
2023-05-11T02:04:32.146Z,11.3
2023-05-11T02:09:28.741Z,10.9
2023-05-11T02:15:39.325Z,10.8
2023-05-11T02:20:35.940Z,10.7
2023-05-11T02:25:32.500Z,10.9
2023-05-11T02:30:28.948Z,11.1
2023-05-11T02:36:39.588Z,11.1
2023-05-11T02:41:36.178Z,11.3
2023-05-11T02:42:50.257Z,11.3
2023-05-11T02:46:32.759Z,11.4
2023-05-11T02:51:29.154Z,11.5
2023-05-11T02:57:39.913Z,11.3
2023-05-11T03:02:36.607Z,11.3
2023-05-11T03:07:32.896Z,11.4
2023-05-11T03:18:40.273Z,11.1
2023-05-11T03:23:36.690Z,11.1
2023-05-11T03:28:33.324Z,11.1
2023-05-11T03:33:29.752Z,11
2023-05-11T03:39:40.376Z,10.9
2023-05-11T03:44:37.027Z,11
2023-05-11T03:49:33.547Z,11.1
2023-05-11T03:54:29.988Z,11
2023-05-11T04:00:40.622Z,11.2
2023-05-11T04:04:23.135Z,11.1
2023-05-11T04:05:37.348Z,11.2
2023-05-11T04:10:33.742Z,11.3
2023-05-11T04:15:30.235Z,11.2
2023-05-11T04:21:40.876Z,11.2
2023-05-11T04:26:37.448Z,11.4
2023-05-11T04:31:34.027Z,11.4
2023-05-11T04:36:30.485Z,11.5
2023-05-11T04:41:27.513Z,11.7
2023-05-11T04:47:37.859Z,11.7
2023-05-11T04:52:34.354Z,11.8
2023-05-11T04:57:30.775Z,11.9
2023-05-11T05:03:41.452Z,12.1
2023-05-11T05:08:37.968Z,12.1
2023-05-11T05:13:34.596Z,12.1
2023-05-11T05:18:30.999Z,12.3
2023-05-11T05:24:41.676Z,12.7
2023-05-11T05:29:38.478Z,12.8
2023-05-11T05:34:34.797Z,12.8
2023-05-11T05:39:31.501Z,13.1
2023-05-11T05:45:42.280Z,13
2023-05-11T05:50:38.558Z,13.1
2023-05-11T05:55:35.084Z,13.2
2023-05-11T06:00:31.584Z,13.3
2023-05-11T06:05:28.368Z,13.3
2023-05-11T06:11:38.858Z,13
2023-05-11T06:16:35.500Z,13
2023-05-11T06:21:31.960Z,12.6
2023-05-11T06:26:28.402Z,12.8
2023-05-11T06:32:39.068Z,12.9
2023-05-11T06:37:35.649Z,13.3
2023-05-11T06:42:32.105Z,13.4
2023-05-11T06:47:28.609Z,13.4
2023-05-11T06:53:39.361Z,13.9
2023-05-11T06:58:35.861Z,13.8
2023-05-11T07:03:32.357Z,14
2023-05-11T07:08:28.991Z,14.2
2023-05-11T07:14:39.674Z,14.3
2023-05-11T07:19:36.091Z,14.9
2023-05-11T07:24:32.662Z,14.9
2023-05-11T07:29:29.196Z,14.3
2023-05-11T07:35:39.852Z,14.2
2023-05-11T07:40:36.439Z,14.5
2023-05-11T07:45:32.906Z,14.6
2023-05-11T07:56:40.240Z,14.7
2023-05-11T08:01:36.644Z,14.9
2023-05-11T08:06:33.220Z,14.6
2023-05-11T08:11:29.806Z,15
2023-05-11T08:17:40.329Z,15.1
2023-05-11T08:22:37.065Z,15.1
2023-05-11T08:27:33.468Z,15.4
2023-05-11T08:32:29.978Z,15.2
2023-05-11T08:38:40.655Z,14.6
2023-05-11T08:43:37.262Z,14.2
2023-05-11T08:48:33.725Z,14.5
2023-05-11T08:53:30.199Z,14.9
2023-05-11T08:59:40.965Z,15.7
2023-05-11T09:04:37.406Z,16.5
2023-05-11T09:09:33.948Z,17.1
2023-05-11T09:14:30.454Z,18
2023-05-11T09:20:41.165Z,17.5
2023-05-11T09:25:37.738Z,16.4
2023-05-11T09:30:34.296Z,16.3
2023-05-11T09:31:48.625Z,16.4
2023-05-11T09:35:30.729Z,16.9
2023-05-11T09:41:41.373Z,17.5
2023-05-11T09:46:38.007Z,18.2
2023-05-11T09:51:34.528Z,18.6
2023-05-11T09:56:30.973Z,18.3
2023-05-11T10:02:41.704Z,19
2023-05-11T10:07:38.309Z,19.2
2023-05-11T10:12:34.747Z,18.4
2023-05-11T10:17:31.313Z,18.3
2023-05-11T10:23:41.921Z,18.4
2023-05-11T10:28:38.546Z,18.7
2023-05-11T10:33:35.002Z,19.2
2023-05-11T10:38:31.588Z,18.8
2023-05-11T10:43:28.093Z,19.5
2023-05-11T10:49:38.820Z,19.2
2023-05-11T10:59:31.800Z,18.5
2023-05-11T11:04:29.767Z,19
2023-05-11T11:10:39.017Z,19.5
2023-05-11T11:15:35.541Z,19.8
2023-05-11T11:20:32.084Z,19
2023-05-11T11:25:28.667Z,19.7
2023-05-11T11:31:39.539Z,19.6
2023-05-11T11:36:35.878Z,20.3
2023-05-11T11:41:32.414Z,19.8
2023-05-11T11:46:28.968Z,19.7
2023-05-11T11:52:39.541Z,18.3
2023-05-11T11:57:36.154Z,18.7
2023-05-11T12:02:32.905Z,19
2023-05-11T12:07:29.242Z,18.8
2023-05-11T12:13:39.805Z,18.9
2023-05-11T12:18:36.529Z,19.8
2023-05-11T12:22:18.706Z,20
2023-05-11T12:23:32.976Z,19.9
2023-05-11T12:28:29.524Z,19.4
2023-05-11T12:34:40.087Z,19.3
2023-05-11T12:39:36.624Z,19.2
2023-05-11T12:44:33.153Z,19.1
2023-05-11T12:49:29.737Z,18.8
2023-05-11T12:55:40.405Z,18.9
2023-05-11T12:59:30.885Z,19.2
2023-05-11T13:05:41.592Z,18.5
2023-05-11T13:10:38.097Z,17
2023-05-11T13:15:34.756Z,16.4
2023-05-11T13:20:31.142Z,16.7
2023-05-11T13:25:27.811Z,16.8
2023-05-11T13:31:38.424Z,16.9
2023-05-11T13:36:34.947Z,17
2023-05-11T13:41:31.434Z,17.1
2023-05-11T13:46:28.107Z,17.7
2023-05-11T13:52:38.631Z,17.9
2023-05-11T14:02:31.926Z,18.4
2023-05-11T14:07:35.781Z,18
2023-05-11T14:13:38.936Z,17.9
2023-05-11T14:18:35.692Z,17.6
2023-05-11T14:23:32.009Z,17.6
2023-05-11T14:34:39.242Z,17.3
2023-05-11T14:39:35.778Z,17
2023-05-11T14:44:32.276Z,17.1
2023-05-11T14:49:28.957Z,16.5
2023-05-11T14:55:39.441Z,16.3
2023-05-11T15:00:36.047Z,16.4
2023-05-11T15:05:32.567Z,16.2
2023-05-11T15:10:29.297Z,16.5
2023-05-11T15:16:39.809Z,16.4
2023-05-11T15:21:36.276Z,16
2023-05-11T15:26:32.786Z,16
2023-05-11T15:31:29.437Z,15.7
2023-05-11T15:37:40.003Z,15.4
2023-05-11T15:42:36.580Z,15.5
2023-05-11T15:47:33.135Z,15.2
2023-05-11T15:52:29.704Z,15.6
2023-05-11T15:58:40.312Z,15.7
2023-05-11T16:03:37.016Z,15.3
2023-05-11T16:08:34.398Z,15.3
2023-05-11T16:13:30.461Z,15.3
2023-05-11T16:17:13.169Z,15.3
2023-05-11T16:19:40.804Z,15.2
2023-05-11T16:24:37.262Z,15.1
2023-05-11T16:29:33.673Z,15.1
2023-05-11T16:34:30.222Z,15.2
2023-05-11T16:40:40.720Z,15.1
2023-05-11T16:45:37.325Z,15
2023-05-11T16:50:33.980Z,14.4
2023-05-11T16:55:30.364Z,14.1
2023-05-11T17:01:41.028Z,13.9
2023-05-11T17:06:37.594Z,13.7
2023-05-11T17:11:34.203Z,13.5
2023-05-11T17:16:30.677Z,13.3
2023-05-11T17:22:41.263Z,13.8
2023-05-11T17:27:37.987Z,13.7
2023-05-11T17:32:34.730Z,13.8
2023-05-11T17:37:32.403Z,13.8
2023-05-11T17:43:41.561Z,13.6
2023-05-11T17:48:38.142Z,13.6
2023-05-11T17:53:34.645Z,14
2023-05-11T17:58:31.143Z,14.1
2023-05-11T18:04:41.889Z,14.1
2023-05-11T18:09:38.434Z,13.9
2023-05-11T18:14:34.962Z,13.6
2023-05-11T18:17:03.317Z,13.7
2023-05-11T18:19:31.380Z,13.9
2023-05-11T18:25:42.146Z,14
2023-05-11T18:30:38.699Z,14.1
2023-05-11T18:35:35.240Z,14
2023-05-11T18:40:31.826Z,13.9
2023-05-11T18:45:28.236Z,13.9
2023-05-11T18:51:38.915Z,13.7
2023-05-11T18:56:35.989Z,13.6
2023-05-11T19:01:46.590Z,13.4
2023-05-11T19:12:39.194Z,13.3
2023-05-11T19:17:35.869Z,13.2
2023-05-11T19:22:32.244Z,13.2
2023-05-11T19:27:28.742Z,13.2
2023-05-11T19:33:39.422Z,13.1
2023-05-11T19:38:35.963Z,13.1
2023-05-11T19:43:32.478Z,13
2023-05-11T19:48:29.032Z,13
2023-05-11T19:54:39.697Z,12.9
2023-05-11T19:59:36.288Z,13
2023-05-11T20:04:32.972Z,13
2023-05-11T20:09:29.260Z,12.9
2023-05-11T20:15:39.954Z,12.9
2023-05-11T20:20:36.496Z,12.9
2023-05-11T20:25:33.113Z,12.8
2023-05-11T20:36:40.300Z,12.8
2023-05-11T20:41:36.766Z,12.7
2023-05-11T20:46:33.328Z,12.8
2023-05-11T20:51:29.829Z,12.7
2023-05-11T20:57:40.456Z,12.7
2023-05-11T21:02:37.105Z,12.7
2023-05-11T21:07:33.665Z,12.7
2023-05-11T21:12:30.214Z,12.8
2023-05-11T21:17:35.071Z,12.7
2023-05-11T21:22:31.358Z,12.8
2023-05-11T21:28:42.004Z,12.9
2023-05-11T21:33:38.538Z,12.9
2023-05-11T21:38:35.066Z,12.7
2023-05-11T21:43:31.589Z,12.8
2023-05-11T21:48:28.142Z,12.7
2023-05-11T21:54:38.958Z,12.8
2023-05-11T22:04:31.928Z,12.7
2023-05-11T22:09:28.414Z,12.7
2023-05-11T22:15:39.073Z,12.8
2023-05-11T22:20:35.793Z,12.8
2023-05-11T22:25:32.208Z,12.7
2023-05-11T22:30:28.665Z,12.9
2023-05-11T22:36:39.327Z,12.9
2023-05-11T22:41:35.907Z,12.9
2023-05-11T22:46:32.563Z,12.8
2023-05-11T22:51:28.922Z,12.8
2023-05-11T22:57:39.601Z,12.8
2023-05-11T23:02:36.483Z,12.8
2023-05-11T23:07:32.648Z,12.8
2023-05-11T23:12:29.228Z,12.8
2023-05-11T23:18:40.054Z,12.7
2023-05-11T23:23:36.388Z,12.7
2023-05-11T23:28:33.016Z,12.7
2023-05-11T23:33:29.478Z,12.7
2023-05-11T23:39:40.193Z,12.8
2023-05-11T23:44:36.698Z,12.8
2023-05-11T23:49:33.272Z,12.9
2023-05-11T23:54:29.743Z,12.8
